Kezdőlap
METAR-TAF:

METAR-TAF

Repülőterek :

Dübendorf, Svájc

földrajzi szélesség: 47-23-55N, földrajzi hosszúság: 8-38-53E, magasság: 448 m

Jelenlegi meteorológiai megfigyelések

A jelentés 24 perccel ezelõtt készült, 12:50 UTC
Észak-északnyugati szél 7 kt, nyugat-északnyugati és északi között változik
Hőmérséklet 8°C
Páratartalom 57%
Légköri nyomás 1029 hPa
Látótávolság 10 km, vagy több
Szakadozott felhőzet 4000 lábon
Szakadozott felhőzet 5600 lábon

METAR: LSMD 181250Z 33007KT 290V010 9999 BKN040 BKN056 08/00 Q1029 RMK BLU

Idő: 14:14 (13:14 UTC)


TAF: hiányzik

Meteorológiai megfigyelések és előrejelzések több, mint 4000 repülőtéren (METAR és TAF jelentéseket).

A térképen piros és sárga pontok jelzik az elérhető meteorológiai állomásokat.

Mozgassa az egeret a pont fölött, hogy megjelenjen az állomás neve.

Azután kattintson az időjárási megfigyelések és előrejelzések megtekintéséhez.

A térkép megváltoztatása: kattintson a fekete keresztel jelölt zöld gombra ráközelítéshez, a vonallal jelölt zöld gombra távolításhoz, vagy a zöld nyilakra a szomszédos térképek eléréséhez.


METAR-TAF: